Time;durP1;ratioP1;P1;durP2;ratioP2;P2;SDS_P1;SDS_P2;PMS_P1;PMS_P2;Temp;Humidity;BMP_temperature;BMP_pressure;BME280_temperature;BME280_humidity;BME280_pressure;Samples;Min_cycle;Max_cycle;Signal;HPM_P1;HPM_P2
2022/06/22 00:01:33;;;;;;;13.80;13.00;;;;;;;;;;5052812;28;20025;-65
2022/06/22 00:04:01;;;;;;;20.00;18.90;;;;;;;;;;5052546;28;20741;-65
2022/06/22 00:06:39;;;;;;;15.63;14.73;;;;;;;;;;5053581;28;20102;-66
2022/06/22 00:09:06;;;;;;;22.98;21.73;;;;;;;;;;5056079;28;20056;-65
2022/06/22 00:11:33;;;;;;;15.27;14.38;;;;;;;;;;5054997;28;20401;-65
2022/06/22 00:14:02;;;;;;;13.63;12.77;;;;;;;;;;5055432;28;20036;-65
2022/06/22 00:16:33;;;;;;;12.82;12.02;;;;;;;;;;5052849;28;20054;-65
2022/06/22 00:19:00;;;;;;;44.63;42.35;;;;;;;;;;5054381;28;20374;-65
2022/06/22 00:21:40;;;;;;;14.85;14.02;;;;;;;;;;5054965;28;20110;-66
2022/06/22 00:24:23;;;;;;;32.47;30.75;;;;;;;;;;5057063;28;20044;-66
2022/06/22 00:27:15;;;;;;;31.63;29.98;;;;;;;;;;5050927;28;20025;-65
2022/06/22 00:29:41;;;;;;;22.58;21.35;;;;;;;;;;5055030;28;20076;-65
2022/06/22 00:32:25;;;;;;;66.22;62.92;;;;;;;;;;5055166;28;20068;-64
2022/06/22 00:34:51;;;;;;;79.20;75.13;;;;;;;;;;5055091;28;20178;-64
2022/06/22 00:37:19;;;;;;;26.75;25.35;;;;;;;;;;5052949;28;20017;-63
2022/06/22 00:39:47;;;;;;;74.95;71.25;;;;;;;;;;5054524;28;20117;-63
2022/06/22 00:42:29;;;;;;;59.58;56.58;;;;;;;;;;5052585;28;20025;-63
2022/06/22 00:45:34;;;;;;;57.63;54.72;;;;;;;;;;5050996;28;20213;-63
2022/06/22 00:48:18;;;;;;;44.97;42.63;;;;;;;;;;5049998;28;20032;-63
2022/06/22 00:50:48;;;;;;;51.05;48.45;;;;;;;;;;5054185;28;20034;-64
2022/06/22 00:53:20;;;;;;;23.92;22.42;;;;;;;;;;5054330;28;20041;-65
2022/06/22 00:55:53;;;;;;;21.10;19.95;;;;;;;;;;5062056;28;20040;-65
2022/06/22 00:58:27;;;;;;;22.05;20.83;;;;;;;;;;5055087;28;20116;-65
2022/06/22 01:01:04;;;;;;;15.38;14.50;;;;;;;;;;5054360;28;20846;-65
2022/06/22 01:04:02;;;;;;;12.65;11.93;;;;;;;;;;5052642;28;20032;-65
2022/06/22 01:06:35;;;;;;;14.52;13.68;;;;;;;;;;5057345;28;20040;-65
2022/06/22 01:09:09;;;;;;;11.57;10.77;;;;;;;;;;5058283;28;20067;-66
2022/06/22 01:14:42;;;;;;;13.32;12.52;;;;;;;;;;5057378;28;20111;-65
2022/06/22 01:17:16;;;;;;;10.40;9.80;;;;;;;;;;5057143;28;20108;-65
2022/06/22 01:19:57;;;;;;;10.57;9.88;;;;;;;;;;5060257;28;20106;-65
2022/06/22 01:22:39;;;;;;;12.95;12.15;;;;;;;;;;5055251;28;20033;-66
2022/06/22 01:25:29;;;;;;;12.55;11.85;;;;;;;;;;5055462;28;20047;-65
2022/06/22 01:27:55;;;;;;;15.43;14.52;;;;;;;;;;5057717;28;20035;-66
2022/06/22 01:30:28;;;;;;;10.10;9.50;;;;;;;;;;5058738;28;20463;-65
2022/06/22 01:32:55;;;;;;;11.95;11.25;;;;;;;;;;5057931;28;20082;-66
2022/06/22 01:35:25;;;;;;;10.65;10.00;;;;;;;;;;5056305;28;20124;-66
2022/06/22 01:37:50;;;;;;;11.00;10.30;;;;;;;;;;5057569;28;20072;-66
2022/06/22 01:40:32;;;;;;;9.68;9.07;;;;;;;;;;5057807;28;20087;-65
2022/06/22 01:43:03;;;;;;;9.60;9.00;;;;;;;;;;5057983;28;20057;-66
2022/06/22 01:46:07;;;;;;;10.55;9.93;;;;;;;;;;5072028;28;20035;-65
2022/06/22 01:48:39;;;;;;;9.07;8.48;;;;;;;;;;5014668;28;20048;-66
2022/06/22 01:51:22;;;;;;;9.68;9.07;;;;;;;;;;5016111;28;20030;-65
2022/06/22 01:53:53;;;;;;;10.52;9.93;;;;;;;;;;5037902;28;20092;-65
2022/06/22 01:56:30;;;;;;;8.35;7.75;;;;;;;;;;5053849;28;20103;-65
2022/06/22 01:59:13;;;;;;;9.43;8.82;;;;;;;;;;5056234;28;20040;-65
2022/06/22 02:01:48;;;;;;;9.10;8.50;;;;;;;;;;5059086;28;20060;-66
2022/06/22 02:04:46;;;;;;;10.25;9.65;;;;;;;;;;5056578;28;20068;-64
2022/06/22 02:07:45;;;;;;;9.15;8.55;;;;;;;;;;5050070;28;20037;-64
2022/06/22 02:10:46;;;;;;;9.35;8.75;;;;;;;;;;5055522;28;20033;-65
2022/06/22 02:13:28;;;;;;;13.10;12.32;;;;;;;;;;5054089;28;20163;-65
2022/06/22 02:16:04;;;;;;;13.25;12.48;;;;;;;;;;5055580;28;20048;-64
2022/06/22 02:18:38;;;;;;;15.63;14.75;;;;;;;;;;5055007;28;20391;-64
2022/06/22 02:21:41;;;;;;;15.40;14.52;;;;;;;;;;5059512;28;20060;-65
2022/06/22 02:24:27;;;;;;;13.82;13.02;;;;;;;;;;5054132;28;20043;-65
2022/06/22 02:27:11;;;;;;;11.30;10.60;;;;;;;;;;5043925;28;20072;-65
2022/06/22 02:29:47;;;;;;;11.50;10.80;;;;;;;;;;5054893;28;20049;-64
2022/06/22 02:32:20;;;;;;;12.55;11.75;;;;;;;;;;5055250;28;20028;-64
2022/06/22 02:34:51;;;;;;;10.90;10.20;;;;;;;;;;5056537;28;20039;-64
2022/06/22 02:37:19;;;;;;;12.95;12.15;;;;;;;;;;5057280;28;20032;-64
2022/06/22 02:39:52;;;;;;;13.60;12.82;;;;;;;;;;5055513;28;20374;-64
2022/06/22 02:45:03;;;;;;;13.07;12.30;;;;;;;;;;5056740;28;20066;-64
2022/06/22 02:47:47;;;;;;;11.65;10.95;;;;;;;;;;5055470;28;20037;-64
2022/06/22 02:50:19;;;;;;;10.15;9.55;;;;;;;;;;5056985;28;20040;-64
2022/06/22 02:52:49;;;;;;;16.00;15.10;;;;;;;;;;5055190;28;20480;-64
2022/06/22 02:55:17;;;;;;;14.00;13.20;;;;;;;;;;5056233;28;20029;-64
2022/06/22 02:57:54;;;;;;;15.18;14.32;;;;;;;;;;5058911;28;20112;-64
2022/06/22 03:00:26;;;;;;;16.20;15.30;;;;;;;;;;5055096;28;20025;-65
2022/06/22 03:02:56;;;;;;;13.77;12.98;;;;;;;;;;5058826;28;20079;-65
2022/06/22 03:05:23;;;;;;;13.95;13.15;;;;;;;;;;5053693;28;20033;-65
2022/06/22 03:07:51;;;;;;;14.90;14.05;;;;;;;;;;5057578;28;20042;-65
2022/06/22 03:10:22;;;;;;;12.57;11.77;;;;;;;;;;5051912;28;20485;-65
2022/06/22 03:12:49;;;;;;;14.38;13.57;;;;;;;;;;5057108;28;20035;-65
2022/06/22 03:15:21;;;;;;;13.73;12.93;;;;;;;;;;5056093;28;20046;-65
2022/06/22 03:17:46;;;;;;;17.17;16.23;;;;;;;;;;5054903;28;20031;-65
2022/06/22 03:20:16;;;;;;;15.32;14.48;;;;;;;;;;5053567;28;20028;-65
2022/06/22 03:22:48;;;;;;;15.23;14.35;;;;;;;;;;5039712;28;20060;-65
2022/06/22 03:25:32;;;;;;;17.02;16.10;;;;;;;;;;5055609;28;20029;-65
2022/06/22 03:28:05;;;;;;;16.05;15.15;;;;;;;;;;5055031;28;20107;-65
2022/06/22 03:30:35;;;;;;;14.10;13.30;;;;;;;;;;5058387;28;20033;-66
2022/06/22 03:33:06;;;;;;;14.27;13.48;;;;;;;;;;5056807;28;20068;-66
2022/06/22 03:35:38;;;;;;;17.73;16.73;;;;;;;;;;5058035;28;20121;-66
2022/06/22 03:38:10;;;;;;;17.25;16.30;;;;;;;;;;5054956;28;20028;-66
2022/06/22 03:40:41;;;;;;;20.15;19.05;;;;;;;;;;5055173;28;20071;-67
2022/06/22 03:43:16;;;;;;;17.90;16.90;;;;;;;;;;5054625;28;20124;-66
2022/06/22 03:45:48;;;;;;;16.00;15.10;;;;;;;;;;5055616;28;20029;-67
2022/06/22 03:48:35;;;;;;;15.48;14.57;;;;;;;;;;5058258;28;20409;-66
2022/06/22 03:51:43;;;;;;;18.65;17.38;;;;;;;;;;5051461;28;20035;-66
2022/06/22 03:54:11;;;;;;;20.17;19.08;;;;;;;;;;5057639;28;20037;-67
2022/06/22 03:56:44;;;;;;;19.13;18.08;;;;;;;;;;5052383;28;20036;-67
2022/06/22 03:59:09;;;;;;;19.63;18.55;;;;;;;;;;5052154;28;20024;-67
2022/06/22 04:01:36;;;;;;;19.63;18.52;;;;;;;;;;5051804;28;20544;-66
2022/06/22 04:04:03;;;;;;;20.05;18.95;;;;;;;;;;5054247;28;20338;-66
2022/06/22 04:06:31;;;;;;;16.95;16.00;;;;;;;;;;5056772;28;20029;-66
2022/06/22 04:08:59;;;;;;;18.80;17.80;;;;;;;;;;5070413;28;20037;-66
2022/06/22 04:11:46;;;;;;;23.70;22.40;;;;;;;;;;5056458;28;20032;-66
2022/06/22 04:14:17;;;;;;;27.48;26.08;;;;;;;;;;5056187;28;20042;-66
2022/06/22 04:16:48;;;;;;;23.70;22.40;;;;;;;;;;5057658;28;20033;-66
2022/06/22 04:19:20;;;;;;;23.77;22.38;;;;;;;;;;5057018;28;20031;-66
2022/06/22 04:21:51;;;;;;;21.95;20.75;;;;;;;;;;5053545;28;20032;-66
2022/06/22 04:24:22;;;;;;;21.40;20.25;;;;;;;;;;5057633;28;20086;-67
2022/06/22 04:26:54;;;;;;;17.45;16.45;;;;;;;;;;5054589;28;20044;-67
2022/06/22 04:29:26;;;;;;;24.35;23.05;;;;;;;;;;5055028;28;20371;-67
2022/06/22 04:32:13;;;;;;;22.23;21.02;;;;;;;;;;5060559;28;20071;-67
2022/06/22 04:34:47;;;;;;;16.90;16.00;;;;;;;;;;5053068;28;20021;-67
2022/06/22 04:37:20;;;;;;;23.13;21.90;;;;;;;;;;5053180;28;20037;-66
2022/06/22 04:39:50;;;;;;;18.88;17.83;;;;;;;;;;5055671;28;20032;-67
2022/06/22 04:42:15;;;;;;;20.20;19.10;;;;;;;;;;5058018;28;20470;-67
2022/06/22 04:44:50;;;;;;;21.17;19.98;;;;;;;;;;5059892;28;20116;-67
2022/06/22 04:47:24;;;;;;;27.58;25.85;;;;;;;;;;5059116;28;20043;-67
2022/06/22 04:49:57;;;;;;;24.48;23.17;;;;;;;;;;5063574;28;20051;-67
2022/06/22 04:52:37;;;;;;;23.50;22.23;;;;;;;;;;5059207;28;20032;-67
2022/06/22 04:55:04;;;;;;;18.92;17.90;;;;;;;;;;5056511;28;20163;-67
2022/06/22 04:57:33;;;;;;;21.75;20.55;;;;;;;;;;5057399;28;20039;-67
2022/06/22 05:00:17;;;;;;;15.48;14.57;;;;;;;;;;5057011;28;20036;-68
2022/06/22 05:02:46;;;;;;;25.65;24.27;;;;;;;;;;5061218;28;20044;-67
2022/06/22 05:05:19;;;;;;;13.95;13.15;;;;;;;;;;5060880;28;20045;-67
2022/06/22 05:07:52;;;;;;;20.27;19.17;;;;;;;;;;5054916;28;20028;-67
2022/06/22 05:10:29;;;;;;;12.45;11.75;;;;;;;;;;5066786;28;20083;-67
2022/06/22 05:13:03;;;;;;;21.90;20.73;;;;;;;;;;5056316;28;20050;-67
2022/06/22 05:15:33;;;;;;;12.80;12.05;;;;;;;;;;5055119;28;20083;-68
2022/06/22 05:18:01;;;;;;;11.55;10.85;;;;;;;;;;5056700;28;20024;-68
2022/06/22 05:20:45;;;;;;;11.05;10.35;;;;;;;;;;5056377;28;20078;-68
2022/06/22 05:23:11;;;;;;;12.88;12.15;;;;;;;;;;5057458;28;20486;-69
2022/06/22 05:25:38;;;;;;;16.77;15.77;;;;;;;;;;5060935;28;20035;-69
2022/06/22 05:28:03;;;;;;;20.23;18.95;;;;;;;;;;5061260;28;20033;-68
2022/06/22 05:30:44;;;;;;;16.15;15.25;;;;;;;;;;5058512;28;20421;-69
2022/06/22 05:33:14;;;;;;;20.23;19.13;;;;;;;;;;5059651;28;20062;-68
2022/06/22 05:35:48;;;;;;;18.30;17.20;;;;;;;;;;5055396;28;20033;-67
2022/06/22 05:38:16;;;;;;;18.60;17.52;;;;;;;;;;5054767;28;20613;-67
2022/06/22 05:40:45;;;;;;;14.40;13.60;;;;;;;;;;5058861;28;20041;-67
2022/06/22 05:43:10;;;;;;;19.40;18.30;;;;;;;;;;5056362;28;20528;-67
2022/06/22 05:45:55;;;;;;;15.50;14.60;;;;;;;;;;5056493;28;20054;-67
2022/06/22 05:48:26;;;;;;;23.98;22.70;;;;;;;;;;5057732;28;20033;-67
2022/06/22 05:51:06;;;;;;;30.08;28.52;;;;;;;;;;5056189;28;20033;-67
2022/06/22 05:53:39;;;;;;;27.25;25.75;;;;;;;;;;5057045;28;20056;-67
2022/06/22 05:56:12;;;;;;;21.30;20.13;;;;;;;;;;5052895;28;20421;-68
2022/06/22 05:58:46;;;;;;;21.25;20.13;;;;;;;;;;5060391;28;20021;-67
2022/06/22 06:01:22;;;;;;;27.10;25.70;;;;;;;;;;5058885;28;20032;-67
2022/06/22 06:04:01;;;;;;;27.08;25.67;;;;;;;;;;5054734;28;20044;-67
2022/06/22 06:06:30;;;;;;;28.55;27.05;;;;;;;;;;5059005;28;20055;-67
2022/06/22 06:09:00;;;;;;;29.70;28.13;;;;;;;;;;5053976;28;20036;-67
2022/06/22 06:11:32;;;;;;;26.85;25.42;;;;;;;;;;5055036;28;20114;-67
2022/06/22 06:14:01;;;;;;;29.88;28.27;;;;;;;;;;5057116;28;20033;-68
2022/06/22 06:16:40;;;;;;;29.80;28.25;;;;;;;;;;5057295;28;20087;-67
2022/06/22 06:19:07;;;;;;;27.77;26.33;;;;;;;;;;5054782;28;20067;-67
2022/06/22 06:21:36;;;;;;;28.95;27.45;;;;;;;;;;5054608;28;20585;-67
2022/06/22 06:24:33;;;;;;;17.98;16.98;;;;;;;;;;5054879;28;20056;-68
2022/06/22 06:30:13;;;;;;;18.58;17.58;;;;;;;;;;5057136;28;20048;-66
2022/06/22 06:32:45;;;;;;;32.58;30.88;;;;;;;;;;5056846;28;20028;-66
2022/06/22 06:35:14;;;;;;;27.98;26.52;;;;;;;;;;5058059;28;20490;-67
2022/06/22 06:37:45;;;;;;;27.63;26.13;;;;;;;;;;5057174;28;20043;-67
2022/06/22 06:40:15;;;;;;;20.77;19.52;;;;;;;;;;5055008;28;20647;-68
2022/06/22 06:42:47;;;;;;;17.42;16.38;;;;;;;;;;5055972;28;20370;-67
2022/06/22 06:45:17;;;;;;;18.23;17.17;;;;;;;;;;5057971;28;20032;-67
2022/06/22 06:47:48;;;;;;;19.90;18.80;;;;;;;;;;5056573;28;20040;-67
2022/06/22 06:50:19;;;;;;;17.63;16.63;;;;;;;;;;5056123;28;20060;-66
2022/06/22 06:52:54;;;;;;;15.18;14.27;;;;;;;;;;5057035;28;20041;-66
2022/06/22 06:55:44;;;;;;;27.40;25.95;;;;;;;;;;5057237;28;20041;-66
2022/06/22 06:58:11;;;;;;;14.03;13.23;;;;;;;;;;5056719;28;20510;-67
2022/06/22 07:00:37;;;;;;;18.30;17.30;;;;;;;;;;5054771;28;20302;-67
2022/06/22 07:03:07;;;;;;;20.92;19.77;;;;;;;;;;5053068;28;20641;-67
2022/06/22 07:05:32;;;;;;;;;;;;;;;;;;5055027;28;20413;-67
2022/06/22 07:08:16;;;;;;;14.70;13.90;;;;;;;;;;5054821;28;19923;-67
2022/06/22 07:10:50;;;;;;;27.15;25.73;;;;;;;;;;5052691;28;20028;-67
2022/06/22 07:13:29;;;;;;;12.35;11.65;;;;;;;;;;5055720;28;20040;-67
2022/06/22 07:16:03;;;;;;;21.48;20.30;;;;;;;;;;5054840;28;20039;-67
2022/06/22 07:18:34;;;;;;;25.05;23.73;;;;;;;;;;5053908;28;20043;-68
2022/06/22 07:21:21;;;;;;;18.77;17.75;;;;;;;;;;5058244;28;20044;-67
2022/06/22 07:23:50;;;;;;;21.73;20.52;;;;;;;;;;5057089;28;20045;-67
2022/06/22 07:26:34;;;;;;;21.70;20.52;;;;;;;;;;5055222;28;20036;-67
2022/06/22 07:29:02;;;;;;;17.90;16.90;;;;;;;;;;5053764;28;20127;-67
2022/06/22 07:31:36;;;;;;;15.07;14.18;;;;;;;;;;5054567;28;20059;-67
2022/06/22 07:34:15;;;;;;;21.77;20.40;;;;;;;;;;5054012;28;20516;-68
2022/06/22 07:36:47;;;;;;;18.95;17.92;;;;;;;;;;5058026;28;20722;-67
2022/06/22 07:39:20;;;;;;;15.45;14.55;;;;;;;;;;5054633;28;20040;-68
2022/06/22 07:41:46;;;;;;;18.45;17.45;;;;;;;;;;5055252;28;20032;-67
2022/06/22 07:44:17;;;;;;;17.95;16.95;;;;;;;;;;5056697;28;20044;-67
2022/06/22 07:46:49;;;;;;;13.30;12.50;;;;;;;;;;5054111;28;20044;-68
2022/06/22 07:49:39;;;;;;;13.63;12.82;;;;;;;;;;5057620;28;20087;-66
2022/06/22 07:52:07;;;;;;;19.45;18.38;;;;;;;;;;5052969;28;20029;-67
2022/06/22 07:54:44;;;;;;;15.50;14.60;;;;;;;;;;5055616;28;20033;-67
2022/06/22 07:57:28;;;;;;;17.00;16.10;;;;;;;;;;5051134;28;20482;-67
2022/06/22 08:00:00;;;;;;;16.33;15.43;;;;;;;;;;5039080;28;20036;-68
2022/06/22 08:02:45;;;;;;;19.67;18.58;;;;;;;;;;5054795;28;20032;-68
2022/06/22 08:05:15;;;;;;;16.27;15.38;;;;;;;;;;5054824;28;20025;-67
2022/06/22 08:07:50;;;;;;;13.18;12.38;;;;;;;;;;5054273;28;20037;-67
2022/06/22 08:10:31;;;;;;;14.60;13.80;;;;;;;;;;5051731;28;20584;-68
2022/06/22 08:13:11;;;;;;;16.17;15.27;;;;;;;;;;5053202;28;20052;-67
2022/06/22 08:15:50;;;;;;;14.55;13.70;;;;;;;;;;5052764;28;20029;-68
2022/06/22 08:18:16;;;;;;;29.17;27.67;;;;;;;;;;5055579;28;20039;-68
2022/06/22 08:20:44;;;;;;;31.90;30.23;;;;;;;;;;5050708;28;20733;-67
2022/06/22 08:23:17;;;;;;;40.42;38.35;;;;;;;;;;5055087;28;20051;-69
2022/06/22 08:25:44;;;;;;;55.30;52.50;;;;;;;;;;5055333;28;20036;-68
2022/06/22 08:28:13;;;;;;;27.65;26.20;;;;;;;;;;5054770;28;20613;-68
2022/06/22 08:30:39;;;;;;;75.45;71.70;;;;;;;;;;5054762;28;20033;-68
2022/06/22 08:33:07;;;;;;;73.82;70.22;;;;;;;;;;5055775;28;20033;-68
2022/06/22 08:35:35;;;;;;;62.30;59.20;;;;;;;;;;5055421;28;20080;-68
2022/06/22 08:38:08;;;;;;;88.95;84.60;;;;;;;;;;5054657;28;20418;-68
2022/06/22 08:40:49;;;;;;;84.03;79.90;;;;;;;;;;5054143;28;20063;-68
2022/06/22 08:43:50;;;;;;;83.72;79.60;;;;;;;;;;5052064;28;20029;-68
2022/06/22 08:46:33;;;;;;;91.53;87.03;;;;;;;;;;5053575;28;20032;-67
2022/06/22 08:49:23;;;;;;;105.18;100.00;;;;;;;;;;5057060;28;20029;-67
2022/06/22 08:52:08;;;;;;;97.75;92.95;;;;;;;;;;5053499;28;20039;-67
2022/06/22 08:54:50;;;;;;;141.40;134.45;;;;;;;;;;5051112;28;20140;-68
2022/06/22 08:57:32;;;;;;;122.65;116.63;;;;;;;;;;5053722;28;20064;-68
2022/06/22 09:00:05;;;;;;;119.30;113.43;;;;;;;;;;5054359;28;20383;-68
2022/06/22 09:02:55;;;;;;;119.22;113.38;;;;;;;;;;5054164;28;20081;-68
2022/06/22 09:05:38;;;;;;;148.70;141.38;;;;;;;;;;5055169;28;20698;-68
2022/06/22 09:08:03;;;;;;;129.63;123.22;;;;;;;;;;5053480;28;20045;-68
2022/06/22 09:10:46;;;;;;;149.05;141.68;;;;;;;;;;5053392;28;20021;-67
2022/06/22 09:13:18;;;;;;;146.77;139.52;;;;;;;;;;5051794;28;20025;-67
2022/06/22 09:15:49;;;;;;;139.75;132.88;;;;;;;;;;5053623;28;20029;-68
2022/06/22 09:18:18;;;;;;;148.43;141.15;;;;;;;;;;5053495;28;20150;-68
2022/06/22 09:21:13;;;;;;;144.75;137.45;;;;;;;;;;5052814;28;20055;-68
2022/06/22 09:24:02;;;;;;;142.48;135.48;;;;;;;;;;5054454;28;20033;-68
2022/06/22 09:26:44;;;;;;;146.93;139.63;;;;;;;;;;5056633;28;20493;-69
2022/06/22 09:29:28;;;;;;;144.07;136.98;;;;;;;;;;5059169;28;20032;-69
2022/06/22 09:32:15;;;;;;;151.80;144.05;;;;;;;;;;5058294;28;20512;-69
2022/06/22 09:35:22;;;;;;;149.85;142.50;;;;;;;;;;5057824;28;20041;-68
2022/06/22 09:38:02;;;;;;;138.73;131.82;;;;;;;;;;5060017;28;20043;-68
2022/06/22 09:40:54;;;;;;;142.70;135.63;;;;;;;;;;5057331;28;20056;-69
2022/06/22 09:43:25;;;;;;;129.80;123.40;;;;;;;;;;5058916;28;20358;-68
2022/06/22 09:46:25;;;;;;;102.75;97.65;;;;;;;;;;5058820;28;20055;-69
2022/06/22 09:48:56;;;;;;;122.80;116.75;;;;;;;;;;5060120;28;20102;-69
2022/06/22 09:51:52;;;;;;;103.75;98.68;;;;;;;;;;5060071;28;20033;-68
2022/06/22 09:57:51;;;;;;;131.88;125.35;;;;;;;;;;5057854;28;20036;-69
2022/06/22 10:00:25;;;;;;;121.85;115.88;;;;;;;;;;5056377;28;20177;-68
2022/06/22 10:03:10;;;;;;;127.35;121.05;;;;;;;;;;5055289;28;20075;-69
2022/06/22 10:05:45;;;;;;;134.95;128.30;;;;;;;;;;5056530;28;20508;-70
2022/06/22 10:08:16;;;;;;;135.77;129.07;;;;;;;;;;5056554;28;20494;-64
2022/06/22 10:11:04;;;;;;;131.98;125.47;;;;;;;;;;5057739;28;20047;-63
2022/06/22 10:13:39;;;;;;;123.93;117.68;;;;;;;;;;5058227;28;20071;-63
2022/06/22 10:16:33;;;;;;;138.38;131.57;;;;;;;;;;5057958;28;20052;-63
2022/06/22 10:19:10;;;;;;;109.70;104.30;;;;;;;;;;5059319;28;20028;-64
2022/06/22 10:21:47;;;;;;;99.13;94.22;;;;;;;;;;5056693;28;20043;-64
2022/06/22 10:24:47;;;;;;;102.30;97.30;;;;;;;;;;5075127;28;20432;-65
2022/06/22 10:27:19;;;;;;;115.13;109.43;;;;;;;;;;5058631;28;20700;-63
2022/06/22 10:30:09;;;;;;;105.72;100.55;;;;;;;;;;5053518;28;20044;-63
2022/06/22 10:32:52;;;;;;;;;;;;;;;;;;5058746;28;20114;-64
2022/06/22 10:35:24;;;;;;;138.07;131.27;;;;;;;;;;5054975;28;20385;-64
2022/06/22 10:38:26;;;;;;;101.10;96.10;;;;;;;;;;5055857;28;20045;-62
2022/06/22 10:47:57;;;;;;;107.90;102.57;;;;;;;;;;4997005;28;20396;-62
2022/06/22 10:50:26;;;;;;;86.68;82.38;;;;;;;;;;4999498;28;20104;-63
2022/06/22 10:53:28;;;;;;;105.63;100.45;;;;;;;;;;5040824;28;20040;-63
2022/06/22 10:56:13;;;;;;;83.40;79.30;;;;;;;;;;5055763;28;20040;-63
2022/06/22 10:58:46;;;;;;;79.82;75.90;;;;;;;;;;5062162;28;20235;-63
2022/06/22 11:01:45;;;;;;;83.00;78.90;;;;;;;;;;5053680;28;20029;-63
2022/06/22 11:04:41;;;;;;;105.95;100.72;;;;;;;;;;5054310;28;20048;-62
2022/06/22 11:07:17;;;;;;;96.70;91.90;;;;;;;;;;5056589;28;20036;-62
2022/06/22 11:09:58;;;;;;;143.40;136.32;;;;;;;;;;5055904;28;20075;-62
2022/06/22 11:12:32;;;;;;;115.32;109.65;;;;;;;;;;5053357;28;20064;-62
2022/06/22 11:15:39;;;;;;;110.20;104.80;;;;;;;;;;5054286;28;20443;-63
2022/06/22 11:18:31;;;;;;;114.88;109.20;;;;;;;;;;5054802;28;20024;-63
2022/06/22 11:21:05;;;;;;;180.07;171.18;;;;;;;;;;5056272;28;20040;-63
2022/06/22 11:24:02;;;;;;;145.65;138.45;;;;;;;;;;5054113;28;20150;-63
2022/06/22 11:33:03;;;;;;;254.23;241.65;;;;;;;;;;5054602;28;20040;-63
2022/06/22 11:35:31;;;;;;;236.02;224.38;;;;;;;;;;5052554;28;20122;-63
2022/06/22 11:38:31;;;;;;;262.35;249.38;;;;;;;;;;5053848;28;20062;-63
2022/06/22 11:41:07;;;;;;;113.97;108.35;;;;;;;;;;5053657;28;20079;-63
2022/06/22 11:43:46;;;;;;;306.40;291.15;;;;;;;;;;5054834;28;20033;-63
2022/06/22 11:46:25;;;;;;;323.00;306.88;;;;;;;;;;5053407;28;20024;-63
2022/06/22 11:49:34;;;;;;;307.17;291.98;;;;;;;;;;5055295;28;20025;-62
2022/06/22 11:52:19;;;;;;;309.20;293.77;;;;;;;;;;5055389;28;20050;-62
2022/06/22 11:55:11;;;;;;;306.80;291.60;;;;;;;;;;5055146;28;20447;-62
2022/06/22 11:57:58;;;;;;;209.98;199.63;;;;;;;;;;5054164;28;20589;-62
2022/06/22 12:01:00;;;;;;;274.50;260.95;;;;;;;;;;5056246;28;20029;-62
2022/06/22 12:03:45;;;;;;;332.40;315.88;;;;;;;;;;5053935;28;20114;-62
2022/06/22 12:06:51;;;;;;;302.45;287.52;;;;;;;;;;5056222;28;20051;-62
2022/06/22 12:09:47;;;;;;;192.68;183.18;;;;;;;;;;5055737;28;20523;-63
2022/06/22 12:12:51;;;;;;;329.52;313.15;;;;;;;;;;5054716;28;20037;-63
2022/06/22 12:15:37;;;;;;;300.60;285.88;;;;;;;;;;5052346;28;20067;-62
2022/06/22 12:18:21;;;;;;;327.77;311.42;;;;;;;;;;5053675;28;20135;-63
2022/06/22 12:21:08;;;;;;;325.15;309.02;;;;;;;;;;5054629;28;20040;-63
2022/06/22 12:23:52;;;;;;;310.40;294.98;;;;;;;;;;5055382;28;20036;-63
2022/06/22 12:26:35;;;;;;;322.27;306.15;;;;;;;;;;5054615;28;20036;-62
2022/06/22 12:29:31;;;;;;;307.73;292.45;;;;;;;;;;5056533;28;20037;-62
2022/06/22 12:32:25;;;;;;;296.20;281.55;;;;;;;;;;5052786;28;20036;-63
2022/06/22 12:35:20;;;;;;;233.18;221.90;;;;;;;;;;5053207;28;20735;-63
2022/06/22 12:37:55;;;;;;;271.70;258.35;;;;;;;;;;5054617;28;20052;-63
2022/06/22 12:40:43;;;;;;;259.13;246.40;;;;;;;;;;5056307;28;20040;-61
2022/06/22 12:43:38;;;;;;;286.33;272.35;;;;;;;;;;5055631;28;20037;-63
2022/06/22 12:46:08;;;;;;;263.00;250.18;;;;;;;;;;5054122;28;20033;-62
2022/06/22 12:49:08;;;;;;;202.35;192.45;;;;;;;;;;5054271;28;20033;-63
2022/06/22 12:51:51;;;;;;;273.50;260.10;;;;;;;;;;5051759;28;20038;-63
2022/06/22 12:54:28;;;;;;;279.55;265.83;;;;;;;;;;5054973;28;20032;-62
2022/06/22 12:56:53;;;;;;;286.80;272.70;;;;;;;;;;5054457;28;20025;-63
2022/06/22 12:59:35;;;;;;;283.73;269.77;;;;;;;;;;5056080;28;20358;-63
2022/06/22 13:02:04;;;;;;;230.00;218.80;;;;;;;;;;5066552;28;20070;-63
2022/06/22 13:04:33;;;;;;;213.63;203.27;;;;;;;;;;5056846;28;20040;-63
2022/06/22 13:07:04;;;;;;;158.38;150.55;;;;;;;;;;5056915;28;20097;-63
2022/06/22 13:09:30;;;;;;;134.88;128.27;;;;;;;;;;5060099;28;20577;-62
2022/06/22 13:11:59;;;;;;;135.25;128.57;;;;;;;;;;5058893;28;20041;-63
2022/06/22 13:14:38;;;;;;;209.25;199.05;;;;;;;;;;5055326;28;20025;-63
2022/06/22 13:17:16;;;;;;;176.98;168.27;;;;;;;;;;5057069;28;20032;-63
2022/06/22 13:19:56;;;;;;;89.85;85.43;;;;;;;;;;5058770;28;20029;-63
2022/06/22 13:22:35;;;;;;;96.72;92.00;;;;;;;;;;5059871;28;20045;-63
2022/06/22 13:25:01;;;;;;;123.60;117.53;;;;;;;;;;5056047;28;20036;-62
2022/06/22 13:27:48;;;;;;;130.75;124.30;;;;;;;;;;5055479;28;20035;-62
2022/06/22 13:30:31;;;;;;;175.60;166.75;;;;;;;;;;5059394;28;20031;-62
2022/06/22 13:33:07;;;;;;;235.30;223.88;;;;;;;;;;5054603;28;20033;-63
2022/06/22 13:35:53;;;;;;;269.55;256.20;;;;;;;;;;5061956;28;20389;-61
2022/06/22 13:38:37;;;;;;;287.23;273.20;;;;;;;;;;5056651;28;20528;-63
2022/06/22 13:41:27;;;;;;;272.00;258.73;;;;;;;;;;5056777;28;20059;-62
2022/06/22 13:44:03;;;;;;;268.98;255.82;;;;;;;;;;5057159;28;20122;-63
2022/06/22 13:46:44;;;;;;;287.15;273.08;;;;;;;;;;5060046;28;20040;-62
2022/06/22 13:49:33;;;;;;;244.95;232.57;;;;;;;;;;5058190;28;20029;-64
2022/06/22 13:52:14;;;;;;;247.77;235.68;;;;;;;;;;5055137;28;20504;-63
2022/06/22 13:54:56;;;;;;;269.55;256.42;;;;;;;;;;5055118;28;20044;-63
2022/06/22 13:57:39;;;;;;;264.40;251.50;;;;;;;;;;5056387;28;20051;-63
2022/06/22 14:00:07;;;;;;;255.93;243.43;;;;;;;;;;5058799;28;20417;-63
2022/06/22 14:02:52;;;;;;;263.90;251.02;;;;;;;;;;5054066;28;20032;-61
2022/06/22 14:05:38;;;;;;;263.52;250.68;;;;;;;;;;5054241;28;20032;-63
2022/06/22 14:08:04;;;;;;;240.18;228.40;;;;;;;;;;5058472;28;20041;-63
2022/06/22 14:10:45;;;;;;;220.32;209.55;;;;;;;;;;5054808;28;20040;-63
2022/06/22 14:13:40;;;;;;;261.45;248.65;;;;;;;;;;5056665;28;20033;-63
2022/06/22 14:16:28;;;;;;;228.75;217.60;;;;;;;;;;5056526;28;20175;-64
2022/06/22 14:19:00;;;;;;;201.02;191.00;;;;;;;;;;5058347;28;20043;-64
2022/06/22 14:21:47;;;;;;;196.02;186.43;;;;;;;;;;5057020;28;20225;-63
2022/06/22 14:24:29;;;;;;;190.77;181.38;;;;;;;;;;5052746;28;20057;-63
2022/06/22 14:27:14;;;;;;;219.38;208.63;;;;;;;;;;5055879;28;20083;-62
2022/06/22 14:29:57;;;;;;;174.68;166.00;;;;;;;;;;5056959;28;20081;-63
2022/06/22 14:33:00;;;;;;;174.40;165.80;;;;;;;;;;5056813;28;20044;-63
2022/06/22 14:35:39;;;;;;;126.07;119.82;;;;;;;;;;5054095;28;20082;-63
2022/06/22 14:38:30;;;;;;;205.93;195.85;;;;;;;;;;5057904;28;20056;-63
2022/06/22 14:41:17;;;;;;;118.18;112.32;;;;;;;;;;5057020;28;20043;-64
2022/06/22 14:43:59;;;;;;;130.90;124.40;;;;;;;;;;5054315;28;20033;-62
2022/06/22 14:46:44;;;;;;;87.82;83.50;;;;;;;;;;5053940;28;20260;-63
2022/06/22 14:49:15;;;;;;;74.10;70.40;;;;;;;;;;5058147;28;20084;-65
2022/06/22 14:51:50;;;;;;;65.43;62.13;;;;;;;;;;5057501;28;20033;-63
2022/06/22 14:54:23;;;;;;;76.88;73.05;;;;;;;;;;5056199;28;20426;-63
2022/06/22 14:57:01;;;;;;;85.30;81.07;;;;;;;;;;5055249;28;20124;-64
2022/06/22 14:59:32;;;;;;;87.88;83.20;;;;;;;;;;5056638;28;20021;-63
2022/06/22 15:02:15;;;;;;;97.75;92.95;;;;;;;;;;5054466;28;20068;-63
2022/06/22 15:05:04;;;;;;;91.28;86.75;;;;;;;;;;5054894;28;20056;-63
2022/06/22 15:07:41;;;;;;;98.47;93.63;;;;;;;;;;5054370;28;20056;-63
2022/06/22 15:10:42;;;;;;;104.28;99.15;;;;;;;;;;5055356;28;20355;-63
2022/06/22 15:13:20;;;;;;;124.60;118.40;;;;;;;;;;5028509;28;20128;-63
2022/06/22 15:16:03;;;;;;;135.10;128.40;;;;;;;;;;5053291;28;20122;-65
2022/06/22 15:18:53;;;;;;;135.88;129.18;;;;;;;;;;5053532;28;20028;-64
2022/06/22 15:21:37;;;;;;;;;;;;;;;;;;5053252;28;20116;-63
2022/06/22 15:24:22;;;;;;;111.15;105.68;;;;;;;;;;5056522;28;19923;-65
2022/06/22 15:27:07;;;;;;;142.32;135.38;;;;;;;;;;5058653;28;20037;-65
2022/06/22 15:29:55;;;;;;;143.77;136.63;;;;;;;;;;5055793;28;20035;-64
2022/06/22 15:32:37;;;;;;;145.18;138.02;;;;;;;;;;5056190;28;20039;-65
2022/06/22 15:35:23;;;;;;;146.77;139.52;;;;;;;;;;5054084;28;20041;-67
2022/06/22 15:37:59;;;;;;;150.00;142.60;;;;;;;;;;5055538;28;20025;-66
2022/06/22 15:40:33;;;;;;;156.88;149.18;;;;;;;;;;5056092;28;20040;-65